Historique des mesures à Cassis (13260), France
Quotidien Résumé Juin 1, 2021 Unités:  Métrique/US    US   Métrique
Quotidien Hebdomadaire Mensuel Annuel
  Maximum: Minimum: Moyenne:
Température: 78.4 °F /  25.8 °C 61.5 °F /  16.4 °C 69.6 °F /  20.9 °C
Point de rosée: 65.3 °F /  18.5 °C 50.9 °F /  10.5 °C 58.1 °F /  14.5 °C
Humidité: 78% 55% 67%
Vitesse du vent: 4.5mph /  7.2km/h - 1.7mph /  2.7km/h
Rafales: 10.7mph /  17.3km/h - -
Vent- - SW
Pression: 30.1 in /  1019.1 hPa 30 in /  1016.0 hPa -
Précipitations: 0.18 in /  4.6 mm    
Historical Graphs
 
 
Mesures pour : Juin 1, 2021
Heure Temperature Point de rosée Pression Vent Vitesse du vent Rafales Humidité Pluie (par heure)
00:11 65.1 °F /  18.4 °C 50.9 °F /  10.5 °C 30.1in /  1019.1hPa WNW 1.4mph /  2.2km/h 2.5mph /  4km/h 60% 0in /  0.0mm
01:11 65.5 °F /  18.6 °C 51.3 °F /  10.7 °C 30.1in /  1018.8hPa NNW 4.5mph /  7.2km/h 7mph /  11.2km/h 60% 0in /  0.0mm
02:12 65.8 °F /  18.8 °C 52 °F /  11.1 °C 30.1in /  1018.6hPa Calm   3.4mph /  5.4km/h 61% 0in /  0.0mm
03:11 64 °F /  17.8 °C 51.6 °F /  10.9 °C 30.1in /  1018.7hPa WNW 2.2mph /  3.6km/h 2.5mph /  4km/h 64% 0in /  0.0mm
04:11 62.4 °F /  16.9 °C 51.8 °F /  11 °C 30.1in /  1018.3hPa NW 2.9mph /  4.7km/h 3.4mph /  5.4km/h 68% 0in /  0.0mm
05:11 61.5 °F /  16.4 °C 52.2 °F /  11.2 °C 30.1in /  1018.0hPa NW 2.9mph /  4.7km/h 3.4mph /  5.4km/h 71% 0in /  0.0mm
06:11 61.7 °F /  16.5 °C 53.4 °F /  11.9 °C 30.1in /  1017.9hPa NW 2.2mph /  3.6km/h 3.4mph /  5.4km/h 74% 0in /  0.0mm
07:11 62.2 °F /  16.8 °C 54.1 °F /  12.3 °C 30.1in /  1017.9hPa WNW 2mph /  3.2km/h 2mph /  3.2km/h 75% 0in /  0.0mm
08:11 63 °F /  17.2 °C 55.9 °F /  13.3 °C 30.1in /  1018.2hPa NW 2mph /  3.2km/h 2.9mph /  4.7km/h 78% 0in /  0.0mm
09:11 67.6 °F /  19.8 °C 59 °F /  15 °C 30.1in /  1018.2hPa Calm     74% 0in /  0.0mm
10:11 70 °F /  21.1 °C 58.5 °F /  14.7 °C 30.1in /  1018.3hPa ESE 1.1mph /  1.8km/h 2mph /  3.2km/h 67% 0in /  0.0mm
11:11 72.9 °F /  22.7 °C 59.9 °F /  15.5 °C 30.1in /  1018.3hPa Calm   7.8mph /  12.6km/h 64% 0in /  0.0mm
12:11 75.6 °F /  24.2 °C 60.8 °F /  16 °C 30.1in /  1017.9hPa South 2.5mph /  4km/h 8.9mph /  14.4km/h 60% 0in /  0.0mm
13:11 77.4 °F /  25.2 °C 61.3 °F /  16.3 °C 30.1in /  1017.6hPa SSE 1.6mph /  2.5km/h 6.3mph /  10.1km/h 58% 0in /  0.0mm
14:11 77.9 °F /  25.5 °C 61 °F /  16.1 °C 30in /  1017.1hPa SE 2.5mph /  4km/h 7mph /  11.2km/h 56% 0in /  0.0mm
15:11 78.3 °F /  25.7 °C 60.8 °F /  16 °C 30in /  1016.6hPa ESE 2.5mph /  4km/h 10.7mph /  17.3km/h 55% 0in /  0.0mm
16:11 78.4 °F /  25.8 °C 63.5 °F /  17.5 °C 30in /  1016.1hPa SSW 3.1mph /  5km/h 3.6mph /  5.8km/h 60% 0in /  0.0mm
17:11 77 °F /  25 °C 65.3 °F /  18.5 °C 30in /  1016.0hPa Calm   5.6mph /  9km/h 67% 0in /  0.0mm
18:11 74.8 °F /  23.8 °C 64 °F /  17.8 °C 30in /  1016.0hPa ESE 2mph /  3.2km/h 3.8mph /  6.1km/h 69% 0in /  0.0mm
19:11 72.3 °F /  22.4 °C 63.1 °F /  17.3 °C 30in /  1016.2hPa South 1.4mph /  2.2km/h 4.5mph /  7.2km/h 73% 0.18in /  4.6mm
20:11 70.7 °F /  21.5 °C 62.8 °F /  17.1 °C 30in /  1016.4hPa Calm     76% 0in /  0.0mm
21:11 69.8 °F /  21 °C 61.5 °F /  16.4 °C 30in /  1016.5hPa Calm   0.9mph /  1.4km/h 75% 0in /  0.0mm
22:11 68.5 °F /  20.3 °C 60.3 °F /  15.7 °C 30in /  1016.6hPa NNW 3.1mph /  5km/h 5.2mph /  8.3km/h 75% 0in /  0.0mm
23:11 66.7 °F /  19.3 °C 59.4 °F /  15.2 °C 30in /  1016.4hPa Calm     77% 0in /  0.0mm
Observations météo à CASSIS
WU-History script by Weather Underground - 2 mb